createdAt,value
2017-07-05T00:01:01.492Z,8.52
2017-07-05T00:03:28.182Z,10.70
2017-07-05T00:05:54.864Z,8.60
2017-07-05T00:08:21.508Z,7.68
2017-07-05T00:10:48.170Z,9.70
2017-07-05T00:13:14.837Z,9.02
2017-07-05T00:15:41.481Z,8.15
2017-07-05T00:18:08.218Z,8.88
2017-07-05T00:20:34.903Z,9.00
2017-07-05T00:23:01.570Z,12.37
2017-07-05T00:25:28.333Z,10.05
2017-07-05T00:27:55.000Z,10.80
2017-07-05T00:30:21.734Z,13.52
2017-07-05T00:32:48.458Z,12.20
2017-07-05T00:35:15.129Z,15.75
2017-07-05T00:37:41.856Z,12.90
2017-07-05T00:40:08.504Z,11.55
2017-07-05T00:42:35.180Z,9.70
2017-07-05T00:45:01.828Z,11.12
2017-07-05T00:47:28.512Z,10.02
2017-07-05T00:49:55.247Z,10.80
2017-07-05T00:52:21.987Z,10.13
2017-07-05T00:54:48.735Z,10.15
2017-07-05T00:57:15.421Z,8.93
2017-07-05T00:59:42.088Z,10.90
2017-07-05T01:02:08.752Z,11.63
2017-07-05T01:04:35.421Z,10.10
2017-07-05T01:07:02.130Z,10.43
2017-07-05T01:09:28.795Z,14.25
2017-07-05T01:11:55.719Z,10.95
2017-07-05T01:14:22.460Z,12.98
2017-07-05T01:16:49.133Z,16.98
2017-07-05T01:19:15.825Z,14.85
2017-07-05T01:21:42.487Z,13.45
2017-07-05T01:24:09.225Z,14.15
2017-07-05T01:26:35.908Z,12.95
2017-07-05T01:29:02.552Z,12.40
2017-07-05T01:31:29.225Z,12.48
2017-07-05T01:33:55.919Z,13.55
2017-07-05T01:36:22.718Z,11.98
2017-07-05T01:38:49.391Z,11.98
2017-07-05T01:41:16.076Z,12.27
2017-07-05T01:43:42.843Z,12.63
2017-07-05T01:46:09.587Z,11.95
2017-07-05T01:48:36.819Z,11.38
2017-07-05T01:51:03.476Z,10.13
2017-07-05T01:53:30.143Z,11.50
2017-07-05T01:55:56.853Z,12.15
2017-07-05T01:58:23.500Z,13.68
2017-07-05T02:00:50.166Z,11.38
2017-07-05T02:03:16.839Z,13.05
2017-07-05T02:05:43.502Z,11.05
2017-07-05T02:08:10.252Z,12.15
2017-07-05T02:10:36.942Z,11.52
2017-07-05T02:13:03.631Z,12.00
2017-07-05T02:15:30.284Z,11.90
2017-07-05T02:17:56.960Z,16.17
2017-07-05T02:20:23.667Z,13.07
2017-07-05T02:22:51.239Z,12.27
2017-07-05T02:25:17.933Z,18.73
2017-07-05T02:27:44.604Z,12.45
2017-07-05T02:30:11.343Z,13.30
2017-07-05T02:32:38.058Z,15.63
2017-07-05T02:35:04.723Z,14.52
2017-07-05T02:37:31.456Z,11.88
2017-07-05T02:39:58.211Z,11.90
2017-07-05T02:42:24.951Z,12.45
2017-07-05T02:44:51.690Z,10.95
2017-07-05T02:47:18.439Z,13.13
2017-07-05T02:49:45.107Z,11.40
2017-07-05T02:52:11.765Z,12.05
2017-07-05T02:54:38.462Z,12.07
2017-07-05T02:57:05.108Z,13.57
2017-07-05T02:59:31.760Z,15.70
2017-07-05T03:01:58.571Z,11.77
2017-07-05T03:04:25.235Z,14.52
2017-07-05T03:06:51.939Z,10.85
2017-07-05T03:09:18.683Z,8.73
2017-07-05T03:11:45.347Z,10.60
2017-07-05T03:14:11.992Z,10.20
2017-07-05T03:16:38.675Z,11.20
2017-07-05T03:19:05.337Z,9.90
2017-07-05T03:21:32.083Z,11.82
2017-07-05T03:23:59.032Z,10.90
2017-07-05T03:26:25.771Z,9.90
2017-07-05T03:28:52.527Z,11.43
2017-07-05T03:31:19.270Z,11.15
2017-07-05T03:33:46.006Z,9.65
2017-07-05T03:36:12.748Z,16.85
2017-07-05T03:38:39.491Z,9.93
2017-07-05T03:41:06.227Z,9.95
2017-07-05T03:43:32.967Z,10.70
2017-07-05T03:45:59.715Z,10.90
2017-07-05T03:48:26.382Z,12.27
2017-07-05T03:50:53.080Z,9.68
2017-07-05T03:53:19.838Z,10.93
2017-07-05T03:55:46.947Z,11.07
2017-07-05T03:58:13.595Z,10.32
2017-07-05T04:00:40.277Z,10.32
2017-07-05T04:03:06.924Z,11.00
2017-07-05T04:05:33.576Z,11.30
2017-07-05T04:08:00.250Z,9.57
2017-07-05T04:10:26.978Z,11.20
2017-07-05T04:12:53.643Z,11.75
2017-07-05T04:15:20.391Z,12.13
2017-07-05T04:17:47.141Z,14.10
2017-07-05T04:20:13.806Z,14.65
2017-07-05T04:22:40.511Z,12.98
2017-07-05T04:25:07.165Z,12.65
2017-07-05T04:27:33.824Z,15.98
2017-07-05T04:30:00.537Z,12.57
2017-07-05T04:32:27.192Z,12.00
2017-07-05T04:34:53.857Z,13.48
2017-07-05T04:37:20.552Z,17.23
2017-07-05T04:39:47.315Z,15.52
2017-07-05T04:42:13.982Z,13.20
2017-07-05T04:44:40.695Z,14.73
2017-07-05T04:47:07.426Z,13.15
2017-07-05T04:49:34.166Z,13.75
2017-07-05T04:52:00.914Z,13.62
2017-07-05T04:54:27.600Z,12.23
2017-07-05T04:56:54.252Z,14.20
2017-07-05T04:59:21.043Z,13.77
2017-07-05T05:01:47.786Z,18.37
2017-07-05T05:04:14.449Z,12.65
2017-07-05T05:06:41.166Z,15.52
2017-07-05T05:09:07.835Z,12.70
2017-07-05T05:11:34.529Z,14.63
2017-07-05T05:14:01.216Z,14.93
2017-07-05T05:16:27.923Z,13.05
2017-07-05T05:18:54.666Z,15.27
2017-07-05T05:21:21.358Z,12.93
2017-07-05T05:23:48.035Z,12.98
2017-07-05T05:26:14.787Z,11.50
2017-07-05T05:28:41.508Z,11.57
2017-07-05T05:31:08.177Z,11.82
2017-07-05T05:33:34.847Z,11.57
2017-07-05T05:36:01.551Z,13.93
2017-07-05T05:38:28.280Z,12.43
2017-07-05T05:40:54.943Z,14.48
2017-07-05T05:43:21.624Z,14.23
2017-07-05T05:45:48.288Z,17.27
2017-07-05T05:48:15.874Z,12.93
2017-07-05T05:50:42.552Z,15.00
2017-07-05T05:53:09.214Z,15.30
2017-07-05T05:55:35.947Z,15.52
2017-07-05T05:58:02.637Z,15.43
2017-07-05T06:00:29.284Z,19.37
2017-07-05T06:02:55.937Z,18.73
2017-07-05T06:05:22.640Z,15.35
2017-07-05T06:07:49.303Z,17.60
2017-07-05T06:10:15.956Z,14.02
2017-07-05T06:12:42.659Z,16.08
2017-07-05T06:15:09.505Z,16.52
2017-07-05T06:17:36.237Z,14.60
2017-07-05T06:20:02.913Z,17.12
2017-07-05T06:22:29.581Z,22.50
2017-07-05T06:24:56.246Z,18.80
2017-07-05T06:27:23.016Z,13.57
2017-07-05T06:29:49.747Z,14.27
2017-07-05T06:32:16.410Z,10.35
2017-07-05T06:34:43.140Z,12.52
2017-07-05T06:37:09.881Z,9.45
2017-07-05T06:39:36.539Z,8.90
2017-07-05T06:42:03.233Z,7.43
2017-07-05T06:44:29.994Z,11.35
2017-07-05T06:46:56.729Z,7.30
2017-07-05T06:49:23.396Z,10.63
2017-07-05T06:51:50.059Z,7.65
2017-07-05T06:54:16.705Z,10.45
2017-07-05T06:56:43.384Z,10.00
2017-07-05T06:59:10.237Z,9.60
2017-07-05T07:01:36.967Z,7.68
2017-07-05T07:04:04.021Z,7.87
2017-07-05T07:06:30.672Z,6.95
2017-07-05T07:08:57.330Z,7.70
2017-07-05T07:11:24.035Z,7.65
2017-07-05T07:13:50.788Z,7.00
2017-07-05T07:16:17.529Z,10.73
2017-07-05T07:18:44.210Z,6.22
2017-07-05T07:21:10.919Z,7.05
2017-07-05T07:23:37.640Z,7.37
2017-07-05T07:26:04.335Z,6.00
2017-07-05T07:28:31.020Z,8.23
2017-07-05T07:30:57.787Z,11.12
2017-07-05T07:33:24.510Z,8.48
2017-07-05T07:35:51.163Z,10.45
2017-07-05T07:38:17.896Z,7.70
2017-07-05T07:40:44.587Z,6.20
2017-07-05T07:43:11.279Z,7.93
2017-07-05T07:45:38.022Z,7.45
2017-07-05T07:48:04.754Z,7.18
2017-07-05T07:50:31.416Z,13.85
2017-07-05T07:52:58.134Z,7.10
2017-07-05T07:55:24.881Z,7.00
2017-07-05T07:57:51.624Z,13.35
2017-07-05T08:00:18.352Z,9.27
2017-07-05T08:02:45.051Z,7.30
2017-07-05T08:05:12.428Z,11.10
2017-07-05T08:07:39.087Z,5.87
2017-07-05T08:10:05.788Z,6.57
2017-07-05T08:12:32.451Z,6.72
2017-07-05T08:14:59.110Z,9.70
2017-07-05T08:17:25.780Z,7.20
2017-07-05T08:19:52.420Z,6.87
2017-07-05T08:22:19.078Z,5.72
2017-07-05T08:24:45.749Z,7.05
2017-07-05T08:27:12.397Z,8.65
2017-07-05T08:29:39.040Z,5.35
2017-07-05T08:32:05.900Z,5.60
2017-07-05T08:34:32.563Z,7.10
2017-07-05T08:36:59.271Z,5.40
2017-07-05T08:39:26.017Z,6.95
2017-07-05T08:41:52.779Z,7.28
2017-07-05T08:44:19.443Z,5.80
2017-07-05T08:46:46.105Z,7.28
2017-07-05T08:49:12.767Z,5.60
2017-07-05T08:51:39.411Z,6.15
2017-07-05T08:54:06.267Z,5.43
2017-07-05T08:56:32.925Z,6.10
2017-07-05T08:58:59.567Z,5.60
2017-07-05T09:01:26.249Z,5.97
2017-07-05T09:03:52.908Z,5.65
2017-07-05T09:06:19.717Z,6.72
2017-07-05T09:08:46.414Z,6.45
2017-07-05T09:11:13.057Z,6.25
2017-07-05T09:13:39.701Z,5.47
2017-07-05T09:16:06.422Z,6.05
2017-07-05T09:18:33.174Z,4.37
2017-07-05T09:20:59.905Z,5.97
2017-07-05T09:23:26.572Z,5.65
2017-07-05T09:25:53.289Z,5.87
2017-07-05T09:28:19.950Z,5.07
2017-07-05T09:30:46.624Z,5.18
2017-07-05T09:33:13.267Z,8.27
2017-07-05T09:35:39.945Z,5.75
2017-07-05T09:38:06.685Z,6.70
2017-07-05T09:40:33.423Z,6.40
2017-07-05T09:43:00.079Z,5.28
2017-07-05T09:45:26.820Z,7.72
2017-07-05T09:47:53.481Z,4.80
2017-07-05T09:50:20.188Z,5.70
2017-07-05T09:52:46.947Z,8.05
2017-07-05T09:55:13.601Z,4.57
2017-07-05T09:57:40.317Z,6.25
2017-07-05T10:00:07.011Z,5.80
2017-07-05T10:02:33.703Z,5.80
2017-07-05T10:05:00.429Z,4.80
2017-07-05T10:07:27.173Z,4.75
2017-07-05T10:09:53.836Z,4.70
2017-07-05T10:12:20.554Z,4.80
2017-07-05T10:14:47.292Z,4.85
2017-07-05T10:17:13.995Z,4.62
2017-07-05T10:19:40.667Z,3.97
2017-07-05T10:22:07.352Z,5.12
2017-07-05T10:24:34.008Z,5.35
2017-07-05T10:27:00.700Z,5.57
2017-07-05T10:29:27.406Z,6.65
2017-07-05T10:31:54.075Z,5.82
2017-07-05T10:34:20.751Z,5.35
2017-07-05T10:36:47.461Z,6.53
2017-07-05T10:39:14.134Z,4.25
2017-07-05T10:41:40.799Z,6.87
2017-07-05T10:44:07.575Z,5.05
2017-07-05T10:46:34.243Z,3.50
2017-07-05T10:49:00.956Z,3.83
2017-07-05T10:51:27.628Z,4.37
2017-07-05T10:53:54.303Z,5.75
2017-07-05T10:56:20.999Z,3.53
2017-07-05T10:58:47.699Z,4.37
2017-07-05T11:01:14.465Z,4.50
2017-07-05T11:03:41.204Z,3.58
2017-07-05T11:06:07.899Z,6.18
2017-07-05T11:08:34.596Z,4.07
2017-07-05T11:11:01.433Z,5.05
2017-07-05T11:13:28.114Z,4.22
2017-07-05T11:15:54.810Z,11.10
2017-07-05T11:18:21.566Z,6.35
2017-07-05T11:20:48.296Z,3.53
2017-07-05T11:23:14.968Z,5.75
2017-07-05T11:25:41.660Z,4.62
2017-07-05T11:28:08.349Z,4.80
2017-07-05T11:30:35.053Z,5.85
2017-07-05T11:33:01.721Z,3.75
2017-07-05T11:35:28.431Z,4.30
2017-07-05T11:37:55.188Z,3.65
2017-07-05T11:40:21.893Z,4.35
2017-07-05T11:42:48.657Z,6.23
2017-07-05T11:45:15.314Z,3.50
2017-07-05T11:47:41.957Z,4.63
2017-07-05T11:50:08.646Z,4.60
2017-07-05T11:52:35.299Z,4.50
2017-07-05T11:55:01.944Z,4.47
2017-07-05T11:57:28.604Z,3.23
2017-07-05T11:59:55.250Z,3.53
2017-07-05T12:02:21.891Z,9.57
2017-07-05T12:04:48.575Z,3.80
2017-07-05T12:07:15.243Z,5.53
2017-07-05T12:09:41.889Z,6.40
2017-07-05T12:12:08.647Z,3.47
2017-07-05T12:14:35.378Z,4.13
2017-07-05T12:17:02.124Z,3.53
2017-07-05T12:19:28.801Z,4.00
2017-07-05T12:21:55.444Z,9.53
2017-07-05T12:24:22.091Z,6.93
2017-07-05T12:26:48.874Z,4.87
2017-07-05T12:29:15.519Z,3.10
2017-07-05T12:31:42.263Z,4.00
2017-07-05T12:34:08.935Z,3.47
2017-07-05T12:36:35.599Z,3.80
2017-07-05T12:39:02.263Z,3.33
2017-07-05T12:41:28.954Z,3.47
2017-07-05T12:43:55.611Z,4.13
2017-07-05T12:46:22.270Z,5.63
2017-07-05T12:48:48.968Z,3.37
2017-07-05T12:51:15.604Z,4.13
2017-07-05T12:53:42.331Z,2.67
2017-07-05T12:56:09.053Z,4.93
2017-07-05T12:58:35.710Z,3.90
2017-07-05T13:01:02.431Z,8.77
2017-07-05T13:03:29.109Z,3.20
2017-07-05T13:05:55.815Z,4.33
2017-07-05T13:08:22.563Z,5.70
2017-07-05T13:10:49.315Z,2.20
2017-07-05T13:13:15.961Z,6.50
2017-07-05T13:15:42.617Z,2.83
2017-07-05T13:18:09.322Z,4.97
2017-07-05T13:20:36.067Z,1.67
2017-07-05T13:23:02.729Z,6.83
2017-07-05T13:25:29.455Z,2.10
2017-07-05T13:27:56.114Z,4.03
2017-07-05T13:30:22.770Z,2.30
2017-07-05T13:32:49.452Z,3.30
2017-07-05T13:35:16.209Z,3.57
2017-07-05T13:37:42.949Z,3.27
2017-07-05T13:40:09.612Z,6.33
2017-07-05T13:42:36.320Z,2.30
2017-07-05T13:45:02.978Z,3.03
2017-07-05T13:47:29.648Z,1.83
2017-07-05T13:49:56.355Z,2.93
2017-07-05T13:52:23.094Z,2.40
2017-07-05T13:54:49.843Z,2.80
2017-07-05T13:57:16.506Z,3.30
2017-07-05T13:59:43.213Z,5.10
2017-07-05T14:02:09.908Z,1.77
2017-07-05T14:04:36.695Z,3.00
2017-07-05T14:07:03.339Z,1.90
2017-07-05T14:09:30.011Z,3.17
2017-07-05T14:11:56.661Z,3.53
2017-07-05T14:14:23.363Z,5.93
2017-07-05T14:16:50.099Z,2.17
2017-07-05T14:19:16.768Z,3.77
2017-07-05T14:21:43.470Z,1.93
2017-07-05T14:24:10.148Z,5.83
2017-07-05T14:26:36.851Z,3.20
2017-07-05T14:29:03.494Z,2.40
2017-07-05T14:31:30.177Z,3.50
2017-07-05T14:33:56.869Z,2.20
2017-07-05T14:36:23.509Z,3.17
2017-07-05T14:38:50.248Z,2.40
2017-07-05T14:41:16.908Z,3.40
2017-07-05T14:43:43.637Z,2.27
2017-07-05T14:46:10.329Z,2.33
2017-07-05T14:48:37.007Z,2.23
2017-07-05T14:51:03.766Z,3.50
2017-07-05T14:53:30.449Z,2.80
2017-07-05T14:55:57.133Z,2.23
2017-07-05T14:58:23.983Z,2.93
2017-07-05T15:00:50.716Z,1.87
2017-07-05T15:03:17.375Z,2.20
2017-07-05T15:05:44.034Z,2.53
2017-07-05T15:08:10.731Z,2.20
2017-07-05T15:10:37.480Z,1.57
2017-07-05T15:13:04.126Z,1.67
2017-07-05T15:15:30.876Z,1.20
2017-07-05T15:17:57.601Z,4.03
2017-07-05T15:20:24.244Z,3.37
2017-07-05T15:22:50.920Z,2.00
2017-07-05T15:25:17.620Z,1.70
2017-07-05T15:27:44.280Z,2.30
2017-07-05T15:30:11.016Z,3.17
2017-07-05T15:32:37.668Z,1.57
2017-07-05T15:35:04.395Z,2.93
2017-07-05T15:37:31.080Z,1.77
2017-07-05T15:39:57.743Z,2.80
2017-07-05T15:42:24.406Z,1.20
2017-07-05T15:44:51.073Z,1.60
2017-07-05T15:47:17.783Z,2.80
2017-07-05T15:49:44.428Z,1.57
2017-07-05T15:52:11.109Z,2.47
2017-07-05T15:54:37.806Z,1.57
2017-07-05T15:57:04.471Z,3.23
2017-07-05T15:59:31.144Z,2.20
2017-07-05T16:01:57.818Z,3.33
2017-07-05T16:04:24.478Z,2.50
2017-07-05T16:06:51.160Z,1.43
2017-07-05T16:09:17.841Z,2.50
2017-07-05T16:11:44.496Z,4.57
2017-07-05T16:14:11.236Z,2.30
2017-07-05T16:16:37.892Z,3.57
2017-07-05T16:19:04.596Z,2.10
2017-07-05T16:21:31.315Z,1.60
2017-07-05T16:23:57.982Z,1.60
2017-07-05T16:26:24.721Z,2.10
2017-07-05T16:28:51.460Z,2.40
2017-07-05T16:31:18.212Z,3.60
2017-07-05T16:33:44.850Z,1.73
2017-07-05T16:36:11.531Z,1.43
2017-07-05T16:38:38.176Z,1.50
2017-07-05T16:41:04.883Z,3.07
2017-07-05T16:43:31.621Z,1.43
2017-07-05T16:45:58.282Z,1.87
2017-07-05T16:48:24.986Z,1.63
2017-07-05T16:50:51.725Z,2.50
2017-07-05T16:53:18.372Z,1.77
2017-07-05T16:55:45.113Z,4.40
2017-07-05T16:58:11.845Z,3.50
2017-07-05T17:00:38.493Z,2.40
2017-07-05T17:03:05.248Z,3.67
2017-07-05T17:05:31.968Z,2.30
2017-07-05T17:07:58.622Z,2.30
2017-07-05T17:10:25.348Z,2.87
2017-07-05T17:12:52.012Z,8.33
2017-07-05T17:15:18.732Z,6.77
2017-07-05T17:17:45.378Z,2.30
2017-07-05T17:20:12.107Z,11.60
2017-07-05T17:22:38.748Z,2.00
2017-07-05T17:25:05.507Z,3.13
2017-07-05T17:27:32.205Z,2.80
2017-07-05T17:29:58.867Z,5.40
2017-07-05T17:32:25.724Z,3.20
2017-07-05T17:34:52.404Z,2.40
2017-07-05T17:37:19.066Z,3.23
2017-07-05T17:39:45.712Z,3.30
2017-07-05T17:42:12.382Z,4.23
2017-07-05T17:44:39.043Z,3.13
2017-07-05T17:47:05.703Z,3.43
2017-07-05T17:49:32.411Z,2.20
2017-07-05T17:51:59.141Z,2.10
2017-07-05T17:54:25.895Z,5.83
2017-07-05T17:56:52.635Z,4.00
2017-07-05T17:59:19.277Z,2.63
2017-07-05T18:01:46.015Z,11.80
2017-07-05T18:04:12.715Z,2.90
2017-07-05T18:06:39.380Z,5.33
2017-07-05T18:09:06.135Z,1.97
2017-07-05T18:11:32.870Z,2.10
2017-07-05T18:13:59.526Z,3.40
2017-07-05T18:16:26.173Z,3.00
2017-07-05T18:18:52.899Z,5.67
2017-07-05T18:21:19.540Z,2.50
2017-07-05T18:23:46.269Z,3.80
2017-07-05T18:26:12.955Z,4.50
2017-07-05T18:28:39.646Z,4.40
2017-07-05T18:31:06.392Z,5.70
2017-07-05T18:33:33.072Z,5.18
2017-07-05T18:35:59.733Z,3.50
2017-07-05T18:38:26.395Z,4.10
2017-07-05T18:40:53.087Z,4.43
2017-07-05T18:43:19.753Z,6.45
2017-07-05T18:45:46.437Z,2.30
2017-07-05T18:48:13.116Z,4.45
2017-07-05T18:50:39.779Z,3.70
2017-07-05T18:53:06.450Z,3.00
2017-07-05T18:55:33.198Z,2.95
2017-07-05T18:57:59.853Z,4.60
2017-07-05T19:00:26.517Z,2.67
2017-07-05T19:02:53.200Z,2.75
2017-07-05T19:05:19.962Z,4.37
2017-07-05T19:07:46.698Z,3.40
2017-07-05T19:10:13.391Z,6.10
2017-07-05T19:12:40.045Z,6.53
2017-07-05T19:15:06.689Z,6.93
2017-07-05T19:17:33.368Z,6.05
2017-07-05T19:20:00.027Z,4.87
2017-07-05T19:22:26.727Z,5.05
2017-07-05T19:24:53.403Z,9.30
2017-07-05T19:27:20.108Z,5.93
2017-07-05T19:29:46.844Z,3.42
2017-07-05T19:32:13.912Z,5.57
2017-07-05T19:34:40.568Z,5.87
2017-07-05T19:37:07.291Z,4.57
2017-07-05T19:39:34.027Z,5.47
2017-07-05T19:42:00.760Z,4.05
2017-07-05T19:44:27.403Z,3.92
2017-07-05T19:46:54.091Z,4.35
2017-07-05T19:49:20.733Z,5.95
2017-07-05T19:51:47.376Z,5.45
2017-07-05T19:54:14.067Z,4.82
2017-07-05T19:56:40.797Z,5.30
2017-07-05T19:59:07.551Z,4.60
2017-07-05T20:01:34.247Z,4.53
2017-07-05T20:04:00.888Z,3.95
2017-07-05T20:06:27.532Z,8.45
2017-07-05T20:08:54.211Z,3.25
2017-07-05T20:11:20.942Z,3.83
2017-07-05T20:13:47.694Z,4.95
2017-07-05T20:16:14.378Z,6.78
2017-07-05T20:18:41.028Z,6.53
2017-07-05T20:21:07.676Z,5.18
2017-07-05T20:23:34.441Z,6.45
2017-07-05T20:26:01.087Z,6.25
2017-07-05T20:28:27.820Z,5.43
2017-07-05T20:30:54.583Z,14.20
2017-07-05T20:33:21.244Z,5.60
2017-07-05T20:35:47.946Z,5.57
2017-07-05T20:38:14.698Z,5.62
2017-07-05T20:40:41.424Z,5.35
2017-07-05T20:43:08.075Z,5.25
2017-07-05T20:45:34.756Z,6.43
2017-07-05T20:48:01.422Z,5.15
2017-07-05T20:50:28.073Z,6.00
2017-07-05T20:52:54.835Z,6.93
2017-07-05T20:55:21.495Z,6.68
2017-07-05T20:57:48.159Z,7.15
2017-07-05T21:00:14.859Z,7.72
2017-07-05T21:02:41.514Z,8.63
2017-07-05T21:05:08.243Z,9.55
2017-07-05T21:07:34.927Z,9.68
2017-07-05T21:10:01.622Z,8.63
2017-07-05T21:12:28.359Z,11.50
2017-07-05T21:14:55.095Z,10.55
2017-07-05T21:17:21.847Z,8.25
2017-07-05T21:19:48.493Z,7.03
2017-07-05T21:22:15.230Z,8.07
2017-07-05T21:24:41.887Z,10.27
2017-07-05T21:27:08.594Z,8.80
2017-07-05T21:29:35.289Z,11.30
2017-07-05T21:32:01.990Z,8.73
2017-07-05T21:34:28.731Z,10.18
2017-07-05T21:36:55.458Z,8.55
2017-07-05T21:39:22.101Z,8.45
2017-07-05T21:41:48.744Z,9.05
2017-07-05T21:44:15.427Z,9.07
2017-07-05T21:46:42.073Z,8.88
2017-07-05T21:49:08.752Z,10.65
2017-07-05T21:51:35.511Z,12.93
2017-07-05T21:54:02.255Z,13.30
2017-07-05T21:56:28.905Z,16.70
2017-07-05T21:58:55.638Z,8.80
2017-07-05T22:01:22.351Z,9.98
2017-07-05T22:03:49.011Z,10.38
2017-07-05T22:06:15.701Z,10.88
2017-07-05T22:08:42.363Z,10.27
2017-07-05T22:11:09.116Z,10.25
2017-07-05T22:13:35.788Z,10.45
2017-07-05T22:16:02.433Z,10.98
2017-07-05T22:18:29.136Z,13.98
2017-07-05T22:20:55.900Z,10.57
2017-07-05T22:23:22.620Z,11.35
2017-07-05T22:25:49.360Z,10.25
2017-07-05T22:28:16.024Z,10.57
2017-07-05T22:30:42.746Z,11.02
2017-07-05T22:33:09.489Z,10.07
2017-07-05T22:35:36.183Z,10.73
2017-07-05T22:38:02.829Z,10.82
2017-07-05T22:40:29.488Z,10.98
2017-07-05T22:42:56.177Z,10.85
2017-07-05T22:45:22.892Z,11.50
2017-07-05T22:47:49.540Z,11.38
2017-07-05T22:50:16.216Z,16.10
2017-07-05T22:52:42.883Z,13.27
2017-07-05T22:55:09.659Z,11.35
2017-07-05T22:57:36.403Z,11.00
2017-07-05T23:00:03.070Z,11.55
2017-07-05T23:02:29.775Z,12.50
2017-07-05T23:04:56.459Z,12.30
2017-07-05T23:07:23.147Z,15.57
2017-07-05T23:09:49.799Z,13.45
2017-07-05T23:12:16.489Z,13.85
2017-07-05T23:14:43.159Z,12.20
2017-07-05T23:17:09.809Z,12.43
2017-07-05T23:19:36.515Z,11.48
2017-07-05T23:22:03.168Z,15.70
2017-07-05T23:24:29.938Z,12.70
2017-07-05T23:26:56.682Z,11.43
2017-07-05T23:29:23.333Z,14.75
2017-07-05T23:31:49.989Z,11.68
2017-07-05T23:34:16.673Z,12.43
2017-07-05T23:36:43.447Z,12.23
2017-07-05T23:39:10.112Z,11.10
2017-07-05T23:41:36.789Z,12.63
2017-07-05T23:44:03.440Z,14.13
2017-07-05T23:46:30.088Z,11.75
2017-07-05T23:48:56.764Z,12.13
2017-07-05T23:51:23.430Z,12.02
2017-07-05T23:53:50.090Z,14.18
2017-07-05T23:56:16.857Z,13.90
2017-07-05T23:58:43.608Z,12.93
